Time,TemperatureF,DewpointF,PressureIn,WindDirection,WindDirectionDegrees,WindSpeedMPH,WindSpeedGustMPH,Humidity,HourlyPrecipIn,Conditions,Clouds,dailyrainin,SoftwareType,DateUTC
2013-07-09 00:02:00,52.2,50.5,29.62,East,91,0.0,0.0,94,0.00,,,0.03,LWC V2.00 B2112,2013-07-09 08:02:00,
2013-07-09 00:07:00,52.1,50.7,29.63,East,91,0.0,0.0,95,0.00,,,0.03,LWC V2.00 B2112,2013-07-09 08:07:00,
2013-07-09 00:12:00,52.0,50.6,29.63,East,91,0.0,0.0,95,0.00,,,0.03,LWC V2.00 B2112,2013-07-09 08:12:00,
2013-07-09 00:17:00,52.0,50.6,29.63,East,92,0.0,0.0,95,0.00,,,0.03,LWC V2.00 B2112,2013-07-09 08:17:00,
2013-07-09 00:22:00,51.8,50.4,29.63,East,92,0.0,0.0,95,0.00,,,0.03,LWC V2.00 B2112,2013-07-09 08:22:00,
2013-07-09 00:27:00,51.8,50.4,29.63,East,92,0.0,0.0,95,0.00,,,0.03,LWC V2.00 B2112,2013-07-09 08:27:00,
2013-07-09 00:32:00,51.7,50.3,29.63,East,92,0.0,0.0,95,0.00,,,0.03,LWC V2.00 B2112,2013-07-09 08:32:00,
2013-07-09 00:37:00,51.7,50.3,29.64,East,91,0.0,0.0,95,0.00,,,0.03,LWC V2.00 B2112,2013-07-09 08:37:00,
2013-07-09 00:42:00,51.6,50.2,29.64,East,91,0.0,0.0,95,0.00,,,0.03,LWC V2.00 B2112,2013-07-09 08:42:00,
2013-07-09 00:47:00,51.6,50.5,29.64,East,91,0.0,0.0,96,0.00,,,0.03,LWC V2.00 B2112,2013-07-09 08:47:00,
2013-07-09 00:52:00,51.5,50.4,29.64,East,91,0.0,0.0,96,0.00,,,0.03,LWC V2.00 B2112,2013-07-09 08:52:00,
2013-07-09 00:57:00,51.5,50.1,29.64,East,91,0.0,0.0,95,0.00,,,0.03,LWC V2.00 B2112,2013-07-09 08:57:00,
2013-07-09 01:02:00,51.4,50.3,29.64,East,91,0.0,0.0,96,0.00,,,0.03,LWC V2.00 B2112,2013-07-09 09:02:00,
2013-07-09 01:07:00,51.3,50.2,29.64,East,92,0.0,0.0,96,0.00,,,0.03,LWC V2.00 B2112,2013-07-09 09:07:00,
2013-07-09 01:12:00,51.3,50.2,29.64,East,92,0.0,0.0,96,0.00,,,0.03,LWC V2.00 B2112,2013-07-09 09:12:00,
2013-07-09 01:17:00,51.3,50.2,29.65,East,92,0.0,0.0,96,0.00,,,0.03,LWC V2.00 B2112,2013-07-09 09:17:00,
2013-07-09 01:22:00,51.2,50.1,29.65,East,91,0.0,0.0,96,0.00,,,0.00,LWC V2.00 B2112,2013-07-09 09:22:00,
2013-07-09 01:27:00,51.2,50.1,29.65,East,92,0.0,0.0,96,0.00,,,0.00,LWC V2.00 B2112,2013-07-09 09:27:00,
2013-07-09 01:32:00,51.2,50.1,29.65,East,92,0.0,0.0,96,0.00,,,0.00,LWC V2.00 B2112,2013-07-09 09:32:00,
2013-07-09 01:37:00,51.1,50.0,29.65,East,92,0.0,0.0,96,0.00,,,0.00,LWC V2.00 B2112,2013-07-09 09:37:00,
2013-07-09 01:42:00,51.1,50.0,29.65,East,91,0.0,0.0,96,0.00,,,0.00,LWC V2.00 B2112,2013-07-09 09:42:00,
2013-07-09 01:52:00,51.0,49.9,29.65,East,92,0.0,0.0,96,0.00,,,0.00,LWC V2.00 B2112,2013-07-09 09:52:00,
2013-07-09 01:57:00,51.0,49.9,29.65,East,91,0.0,0.0,96,0.00,,,0.00,LWC V2.00 B2112,2013-07-09 09:57:00,
2013-07-09 02:02:00,51.0,49.9,29.65,East,92,0.0,0.0,96,0.00,,,0.00,LWC V2.00 B2112,2013-07-09 10:02:00,
2013-07-09 02:07:00,51.0,49.9,29.65,East,92,0.0,0.0,96,0.00,,,0.00,LWC V2.00 B2112,2013-07-09 10:07:00,
2013-07-09 02:12:00,50.9,49.8,29.66,East,92,0.0,0.0,96,0.00,,,0.00,LWC V2.00 B2112,2013-07-09 10:12:00,
2013-07-09 02:17:00,50.9,49.8,29.66,East,91,0.0,0.0,96,0.00,,,0.00,LWC V2.00 B2112,2013-07-09 10:17:00,
2013-07-09 02:22:00,50.7,49.6,29.66,East,92,0.0,0.0,96,0.00,,,0.00,LWC V2.00 B2112,2013-07-09 10:22:00,
2013-07-09 02:27:00,50.5,49.4,29.66,East,90,0.0,0.0,96,0.00,,,0.00,LWC V2.00 B2112,2013-07-09 10:27:00,
2013-07-09 02:32:00,50.3,49.2,29.66,East,90,0.0,0.0,96,0.00,,,0.00,LWC V2.00 B2112,2013-07-09 10:32:00,
2013-07-09 02:37:00,50.1,49.0,29.67,East,90,0.0,0.0,96,0.00,,,0.00,LWC V2.00 B2112,2013-07-09 10:37:00,
2013-07-09 02:42:00,49.9,48.8,29.67,East,90,0.0,0.0,96,0.00,,,0.00,LWC V2.00 B2112,2013-07-09 10:42:00,
2013-07-09 02:47:00,49.7,48.6,29.67,East,90,0.0,0.0,96,0.00,,,0.00,LWC V2.00 B2112,2013-07-09 10:47:00,
2013-07-09 02:52:00,49.6,48.5,29.67,East,90,0.0,0.0,96,0.00,,,0.00,LWC V2.00 B2112,2013-07-09 10:52:00,
2013-07-09 02:57:00,49.5,48.4,29.67,East,90,0.0,0.0,96,0.00,,,0.00,LWC V2.00 B2112,2013-07-09 10:57:00,
2013-07-09 03:00:00,49.5,48.4,29.67,East,90,0.0,0.0,96,0.00,,,0.00,LWC V2.00 B2112,2013-07-09 11:00:00,
2013-07-09 03:02:00,49.4,48.3,29.67,East,90,0.0,0.0,96,0.00,,,0.00,LWC V2.00 B2112,2013-07-09 11:02:00,
2013-07-09 03:10:00,52.9,47.2,29.78,ESE,112,0.0,2.0,81,0.00,,,0.00,LWC V2.00 B2112,2013-07-09 11:10:00,
2013-07-09 03:20:00,52.9,47.2,29.78,ESE,112,0.0,2.0,81,0.00,,,0.00,LWC V2.00 B2112,2013-07-09 11:20:00,
2013-07-09 03:30:00,52.9,47.2,29.78,ESE,112,0.0,2.0,81,0.00,,,0.00,LWC V2.00 B2112,2013-07-09 11:30:00,
2013-07-09 03:40:00,52.9,47.2,29.78,ESE,112,0.0,2.0,81,0.00,,,0.00,LWC V2.00 B2112,2013-07-09 11:40:00,
2013-07-09 03:50:00,52.9,47.2,29.78,ESE,112,0.0,2.0,81,0.00,,,0.00,LWC V2.00 B2112,2013-07-09 11:50:00,
2013-07-09 04:00:00,52.9,47.2,29.78,ESE,112,0.0,2.0,81,0.00,,,0.00,LWC V2.00 B2112,2013-07-09 12:00:00,
2013-07-09 04:10:00,52.9,47.2,29.78,ESE,112,0.0,2.0,81,0.00,,,0.00,LWC V2.00 B2112,2013-07-09 12:10:00,
2013-07-09 04:20:00,52.9,47.2,29.78,ESE,112,0.0,2.0,81,0.00,,,0.00,LWC V2.00 B2112,2013-07-09 12:20:00,
2013-07-09 04:30:00,52.9,47.2,29.78,ESE,112,0.0,2.0,81,0.00,,,0.00,LWC V2.00 B2112,2013-07-09 12:30:00,
2013-07-09 04:40:00,52.9,47.2,29.78,ESE,112,0.0,2.0,81,0.00,,,0.00,LWC V2.00 B2112,2013-07-09 12:40:00,
2013-07-09 04:50:00,52.9,47.2,29.78,ESE,112,0.0,2.0,81,0.00,,,0.00,LWC V2.00 B2112,2013-07-09 12:50:00,
2013-07-09 05:00:00,52.9,47.2,29.78,ESE,112,0.0,2.0,81,0.00,,,0.00,LWC V2.00 B2112,2013-07-09 13:00:00,
2013-07-09 05:10:00,52.9,47.2,29.78,ESE,112,0.0,2.0,81,0.00,,,0.00,LWC V2.00 B2112,2013-07-09 13:10:00,
2013-07-09 05:20:00,52.9,47.2,29.78,ESE,112,0.0,2.0,81,0.00,,,0.00,LWC V2.00 B2112,2013-07-09 13:20:00,
2013-07-09 05:30:00,52.9,47.2,29.78,ESE,112,0.0,2.0,81,0.00,,,0.00,LWC V2.00 B2112,2013-07-09 13:30:00,
2013-07-09 05:40:00,52.9,47.2,29.78,ESE,112,0.0,2.0,81,0.00,,,0.00,LWC V2.00 B2112,2013-07-09 13:40:00,
2013-07-09 05:50:00,52.9,47.2,29.78,ESE,112,0.0,2.0,81,0.00,,,0.00,LWC V2.00 B2112,2013-07-09 13:50:00,
2013-07-09 06:00:00,52.9,47.2,29.78,ESE,112,0.0,2.0,81,0.00,,,0.00,LWC V2.00 B2112,2013-07-09 14:00:00,
2013-07-09 06:10:00,52.9,47.2,29.78,ESE,112,0.0,2.0,81,0.00,,,0.00,LWC V2.00 B2112,2013-07-09 14:10:00,
2013-07-09 06:20:00,52.9,47.2,29.78,ESE,112,0.0,2.0,81,0.00,,,0.00,LWC V2.00 B2112,2013-07-09 14:20:00,
2013-07-09 06:30:00,52.9,47.2,29.78,ESE,112,0.0,2.0,81,0.00,,,0.00,LWC V2.00 B2112,2013-07-09 14:30:00,
2013-07-09 06:40:00,52.9,47.2,29.78,ESE,112,0.0,2.0,81,0.00,,,0.00,LWC V2.00 B2112,2013-07-09 14:40:00,
2013-07-09 06:50:00,52.9,47.2,29.78,ESE,112,0.0,2.0,81,0.00,,,0.00,LWC V2.00 B2112,2013-07-09 14:50:00,
2013-07-09 07:00:00,52.9,47.2,29.78,ESE,112,0.0,2.0,81,0.00,,,0.00,LWC V2.00 B2112,2013-07-09 15:00:00,
2013-07-09 07:10:00,52.9,47.2,29.78,ESE,112,0.0,2.0,81,0.00,,,0.00,LWC V2.00 B2112,2013-07-09 15:10:00,
2013-07-09 07:20:00,52.9,47.2,29.78,ESE,112,0.0,2.0,81,0.00,,,0.00,LWC V2.00 B2112,2013-07-09 15:20:00,
2013-07-09 07:30:00,52.9,47.2,29.78,ESE,112,0.0,2.0,81,0.00,,,0.00,LWC V2.00 B2112,2013-07-09 15:30:00,
2013-07-09 07:40:00,52.9,47.2,29.78,ESE,112,0.0,2.0,81,0.00,,,0.00,LWC V2.00 B2112,2013-07-09 15:40:00,
2013-07-09 07:50:00,52.9,47.2,29.78,ESE,112,0.0,2.0,81,0.00,,,0.00,LWC V2.00 B2112,2013-07-09 15:50:00,
2013-07-09 08:00:00,52.9,47.2,29.78,ESE,112,0.0,2.0,81,0.00,,,0.00,LWC V2.00 B2112,2013-07-09 16:00:00,
2013-07-09 08:10:00,52.9,47.2,29.78,ESE,112,0.0,2.0,81,0.00,,,0.00,LWC V2.00 B2112,2013-07-09 16:10:00,
2013-07-09 08:20:00,52.9,47.2,29.78,ESE,112,0.0,2.0,81,0.00,,,0.00,LWC V2.00 B2112,2013-07-09 16:20:00,
2013-07-09 08:30:00,52.9,47.2,29.78,ESE,112,0.0,2.0,81,0.00,,,0.00,LWC V2.00 B2112,2013-07-09 16:30:00,
2013-07-09 08:40:00,52.9,47.2,29.78,ESE,112,0.0,2.0,81,0.00,,,0.00,LWC V2.00 B2112,2013-07-09 16:40:00,
2013-07-09 08:50:00,52.9,47.2,29.78,ESE,112,0.0,2.0,81,0.00,,,0.00,LWC V2.00 B2112,2013-07-09 16:50:00,
2013-07-09 09:00:00,52.9,47.2,29.78,ESE,112,0.0,2.0,81,0.00,,,0.00,LWC V2.00 B2112,2013-07-09 17:00:00,
2013-07-09 09:14:00,53.1,47.8,29.78,SW,230,0.0,0.0,82,0.00,,,0.00,LWC V2.00 B2112,2013-07-09 17:14:00,
2013-07-09 09:19:00,53.2,47.8,29.78,SW,230,1.0,1.0,82,0.00,,,0.00,LWC V2.00 B2112,2013-07-09 17:19:00,
2013-07-09 09:24:00,53.3,47.9,29.78,SW,230,1.0,1.0,82,0.00,,,0.00,LWC V2.00 B2112,2013-07-09 17:24:00,
2013-07-09 09:29:00,53.5,47.5,29.78,ENE,61,0.0,2.0,80,0.00,,,0.00,LWC V2.00 B2112,2013-07-09 17:29:00,
2013-07-09 09:34:00,53.6,47.2,29.79,ESE,105,0.0,1.0,79,0.00,,,0.00,LWC V2.00 B2112,2013-07-09 17:34:00,
2013-07-09 09:39:00,53.5,47.5,29.79,ESE,115,1.0,1.0,80,0.00,,,0.00,LWC V2.00 B2112,2013-07-09 17:39:00,
2013-07-09 09:44:00,53.7,47.3,29.79,East,87,1.0,1.0,79,0.00,,,0.00,LWC V2.00 B2112,2013-07-09 17:44:00,
2013-07-09 09:49:00,54.2,48.2,29.79,West,280,0.0,1.0,80,0.00,,,0.00,LWC V2.00 B2112,2013-07-09 17:49:00,
2013-07-09 09:54:00,54.8,48.7,29.79,SW,236,1.0,1.0,80,0.00,,,0.00,LWC V2.00 B2112,2013-07-09 17:54:00,
2013-07-09 09:59:00,55.1,48.7,29.79,SSE,156,0.0,0.0,79,0.00,,,0.00,LWC V2.00 B2112,2013-07-09 17:59:00,
2013-07-09 10:04:00,55.3,48.2,29.79,SSE,160,1.0,1.0,77,0.00,,,0.00,LWC V2.00 B2112,2013-07-09 18:04:00,
2013-07-09 10:09:00,55.1,47.7,29.79,SSE,161,1.0,1.0,76,0.00,,,0.00,LWC V2.00 B2112,2013-07-09 18:09:00,
2013-07-09 10:14:00,54.9,47.8,29.79,ESE,102,0.0,2.0,77,0.00,,,0.00,LWC V2.00 B2112,2013-07-09 18:14:00,
2013-07-09 10:19:00,54.5,47.8,29.79,SW,214,0.0,1.0,78,0.00,,,0.00,LWC V2.00 B2112,2013-07-09 18:19:00,
2013-07-09 10:24:00,54.5,48.1,29.79,SSE,149,0.0,0.0,79,0.00,,,0.00,LWC V2.00 B2112,2013-07-09 18:24:00,
2013-07-09 10:29:00,54.9,47.8,29.79,WNW,298,0.0,0.0,77,0.00,,,0.00,LWC V2.00 B2112,2013-07-09 18:29:00,
2013-07-09 10:34:00,55.0,47.6,29.80,SW,227,0.0,2.0,76,0.00,,,0.00,LWC V2.00 B2112,2013-07-09 18:34:00,
2013-07-09 10:39:00,55.1,47.7,29.79,ESE,111,0.0,0.0,76,0.00,,,0.00,LWC V2.00 B2112,2013-07-09 18:39:00,
2013-07-09 10:44:00,55.5,48.8,29.79,ESE,113,0.0,1.0,78,0.00,,,0.00,LWC V2.00 B2112,2013-07-09 18:44:00,
2013-07-09 10:49:00,55.9,47.7,29.79,SSW,213,0.0,1.0,74,0.00,,,0.00,LWC V2.00 B2112,2013-07-09 18:49:00,
2013-07-09 10:54:00,55.8,48.0,29.79,East,89,1.0,1.0,75,0.00,,,0.00,LWC V2.00 B2112,2013-07-09 18:54:00,
2013-07-09 10:59:00,55.7,48.9,29.79,ESE,114,0.0,0.0,78,0.00,,,0.00,LWC V2.00 B2112,2013-07-09 18:59:00,
2013-07-09 11:04:00,55.8,48.7,29.79,ESE,110,0.0,0.0,77,0.00,,,0.00,LWC V2.00 B2112,2013-07-09 19:04:00,
2013-07-09 11:09:00,55.9,47.7,29.79,NW,311,0.0,0.0,74,0.00,,,0.00,LWC V2.00 B2112,2013-07-09 19:09:00,
2013-07-09 11:14:00,55.9,47.7,29.79,ESE,120,0.0,2.0,74,0.00,,,0.00,LWC V2.00 B2112,2013-07-09 19:14:00,
2013-07-09 11:19:00,56.6,48.4,29.79,SE,138,0.0,4.0,74,0.00,,,0.00,LWC V2.00 B2112,2013-07-09 19:19:00,
2013-07-09 11:24:00,57.4,48.1,29.79,WSW,250,1.0,3.0,71,0.00,,,0.00,LWC V2.00 B2112,2013-07-09 19:24:00,
2013-07-09 11:29:00,58.0,47.9,29.79,SSW,192,0.0,1.0,69,0.00,,,0.00,LWC V2.00 B2112,2013-07-09 19:29:00,
2013-07-09 11:34:00,58.7,48.6,29.79,NE,54,1.0,2.0,69,0.00,,,0.00,LWC V2.00 B2112,2013-07-09 19:34:00,
2013-07-09 11:39:00,58.7,48.2,29.79,SW,233,2.0,2.0,68,0.00,,,0.00,LWC V2.00 B2112,2013-07-09 19:39:00,
2013-07-09 11:44:00,58.5,47.6,29.79,NE,43,0.0,3.0,67,0.00,,,0.00,LWC V2.00 B2112,2013-07-09 19:44:00,
2013-07-09 11:49:00,58.1,48.0,29.80,WSW,257,0.0,1.0,69,0.00,,,0.00,LWC V2.00 B2112,2013-07-09 19:49:00,
2013-07-09 11:54:00,57.8,48.1,29.80,NNW,331,0.0,1.0,70,0.00,,,0.00,LWC V2.00 B2112,2013-07-09 19:54:00,
2013-07-09 11:59:00,57.6,47.5,29.80,NW,313,1.0,3.0,69,0.00,,,0.00,LWC V2.00 B2112,2013-07-09 19:59:00,
2013-07-09 12:04:00,57.7,48.0,29.80,WSW,241,1.0,2.0,70,0.00,,,0.00,LWC V2.00 B2112,2013-07-09 20:04:00,
2013-07-09 12:09:00,58.2,47.7,29.80,SSE,161,1.0,2.0,68,0.00,,,0.00,LWC V2.00 B2112,2013-07-09 20:09:00,
2013-07-09 12:14:00,58.2,48.5,29.80,East,84,1.0,2.0,70,0.00,,,0.00,LWC V2.00 B2112,2013-07-09 20:14:00,
2013-07-09 12:19:00,58.3,47.4,29.80,NNW,338,0.0,4.0,67,0.00,,,0.00,LWC V2.00 B2112,2013-07-09 20:19:00,
2013-07-09 12:24:00,58.4,47.5,29.80,East,79,0.0,2.0,67,0.00,,,0.00,LWC V2.00 B2112,2013-07-09 20:24:00,
2013-07-09 12:29:00,58.2,47.7,29.81,SE,134,3.0,3.0,68,0.00,,,0.00,LWC V2.00 B2112,2013-07-09 20:29:00,
2013-07-09 12:34:00,57.9,47.8,29.81,East,92,0.0,2.0,69,0.00,,,0.00,LWC V2.00 B2112,2013-07-09 20:34:00,
2013-07-09 12:39:00,57.9,47.4,29.81,SW,230,1.0,1.0,68,0.00,,,0.00,LWC V2.00 B2112,2013-07-09 20:39:00,
2013-07-09 12:44:00,58.4,49.4,29.81,SW,214,0.0,1.0,72,0.00,,,0.00,LWC V2.00 B2112,2013-07-09 20:44:00,
2013-07-09 12:49:00,59.3,48.7,29.80,South,171,3.0,3.0,68,0.00,,,0.00,LWC V2.00 B2112,2013-07-09 20:49:00,
2013-07-09 12:54:00,59.4,48.0,29.81,ENE,74,0.0,0.0,66,0.00,,,0.00,LWC V2.00 B2112,2013-07-09 20:54:00,
2013-07-09 12:59:00,59.7,47.5,29.81,East,88,1.0,3.0,64,0.00,,,0.00,LWC V2.00 B2112,2013-07-09 20:59:00,
2013-07-09 13:04:00,59.7,47.1,29.81,ESE,109,0.0,2.0,63,0.00,,,0.00,LWC V2.00 B2112,2013-07-09 21:04:00,
2013-07-09 13:09:00,59.5,47.3,29.81,East,96,1.0,2.0,64,0.00,,,0.00,LWC V2.00 B2112,2013-07-09 21:09:00,
2013-07-09 13:14:00,59.2,47.0,29.81,NW,317,1.0,2.0,64,0.00,,,0.00,LWC V2.00 B2112,2013-07-09 21:14:00,
2013-07-09 13:19:00,59.0,47.2,29.81,ESE,122,3.0,4.0,65,0.00,,,0.00,LWC V2.00 B2112,2013-07-09 21:19:00,
2013-07-09 13:24:00,59.2,47.4,29.81,NW,304,1.0,2.0,65,0.00,,,0.00,LWC V2.00 B2112,2013-07-09 21:24:00,
2013-07-09 13:29:00,59.3,47.1,29.81,ENE,61,0.0,4.0,64,0.00,,,0.00,LWC V2.00 B2112,2013-07-09 21:29:00,
2013-07-09 13:34:00,59.2,48.2,29.81,South,172,1.0,1.0,67,0.00,,,0.00,LWC V2.00 B2112,2013-07-09 21:34:00,
2013-07-09 13:39:00,59.8,48.0,29.81,ESE,117,1.0,2.0,65,0.00,,,0.00,LWC V2.00 B2112,2013-07-09 21:39:00,
2013-07-09 13:44:00,59.9,49.3,29.81,East,80,0.0,2.0,68,0.00,,,0.00,LWC V2.00 B2112,2013-07-09 21:44:00,
2013-07-09 13:49:00,60.7,48.4,29.81,WSW,254,1.0,1.0,64,0.00,,,0.00,LWC V2.00 B2112,2013-07-09 21:49:00,
2013-07-09 13:54:00,60.6,48.8,29.81,ESE,110,1.0,3.0,65,0.00,,,0.00,LWC V2.00 B2112,2013-07-09 21:54:00,
2013-07-09 13:59:00,60.7,48.0,29.82,East,90,2.0,2.0,63,0.00,,,0.00,LWC V2.00 B2112,2013-07-09 21:59:00,
2013-07-09 14:04:00,60.3,47.2,29.82,NW,321,1.0,2.0,62,0.00,,,0.00,LWC V2.00 B2112,2013-07-09 22:04:00,
2013-07-09 14:09:00,59.9,47.3,29.82,East,88,0.0,3.0,63,0.00,,,0.00,LWC V2.00 B2112,2013-07-09 22:09:00,
2013-07-09 14:14:00,59.6,48.2,29.82,NW,310,1.0,2.0,66,0.00,,,0.00,LWC V2.00 B2112,2013-07-09 22:14:00,
2013-07-09 14:19:00,59.3,47.9,29.83,ENE,74,0.0,0.0,66,0.00,,,0.00,LWC V2.00 B2112,2013-07-09 22:19:00,
2013-07-09 14:24:00,59.0,48.5,29.83,North,349,0.0,0.0,68,0.00,,,0.00,LWC V2.00 B2112,2013-07-09 22:24:00,
2013-07-09 14:29:00,58.9,48.4,29.83,WSW,244,0.0,2.0,68,0.00,,,0.00,LWC V2.00 B2112,2013-07-09 22:29:00,
2013-07-09 14:34:00,59.2,48.2,29.83,WSW,240,0.0,1.0,67,0.00,,,0.00,LWC V2.00 B2112,2013-07-09 22:34:00,
2013-07-09 14:39:00,59.7,48.7,29.83,ESE,110,0.0,1.0,67,0.00,,,0.00,LWC V2.00 B2112,2013-07-09 22:39:00,
2013-07-09 14:44:00,59.9,48.1,29.83,NNE,13,1.0,2.0,65,0.00,,,0.00,LWC V2.00 B2112,2013-07-09 22:44:00,
2013-07-09 14:49:00,59.9,48.1,29.83,ESE,113,0.0,1.0,65,0.00,,,0.00,LWC V2.00 B2112,2013-07-09 22:49:00,
2013-07-09 14:54:00,60.0,47.8,29.83,NW,319,0.0,2.0,64,0.00,,,0.00,LWC V2.00 B2112,2013-07-09 22:54:00,
2013-07-09 14:59:00,60.0,48.2,29.83,South,176,1.0,1.0,65,0.00,,,0.00,LWC V2.00 B2112,2013-07-09 22:59:00,
2013-07-09 15:04:00,60.2,49.2,29.83,SSW,196,0.0,0.0,67,0.00,,,0.00,LWC V2.00 B2112,2013-07-09 23:04:00,
2013-07-09 15:09:00,60.3,48.1,29.83,SW,221,0.0,1.0,64,0.00,,,0.00,LWC V2.00 B2112,2013-07-09 23:09:00,
2013-07-09 15:14:00,60.0,48.2,29.83,SW,221,0.0,1.0,65,0.00,,,0.00,LWC V2.00 B2112,2013-07-09 23:14:00,
2013-07-09 15:19:00,59.5,48.9,29.84,NNE,17,1.0,2.0,68,0.00,,,0.00,LWC V2.00 B2112,2013-07-09 23:19:00,
2013-07-09 15:24:00,58.7,49.7,29.84,SW,222,0.0,2.0,72,0.00,,,0.00,LWC V2.00 B2112,2013-07-09 23:24:00,
2013-07-09 15:29:00,57.9,48.9,29.84,NNW,340,0.0,1.0,72,0.00,,,0.00,LWC V2.00 B2112,2013-07-09 23:29:00,
2013-07-09 15:34:00,57.6,49.0,29.84,NE,34,0.0,0.0,73,0.00,,,0.00,LWC V2.00 B2112,2013-07-09 23:34:00,
2013-07-09 15:39:00,57.8,49.2,29.84,NE,34,0.0,0.0,73,0.00,,,0.00,LWC V2.00 B2112,2013-07-09 23:39:00,
2013-07-09 15:44:00,58.2,49.6,29.84,East,98,0.0,0.0,73,0.00,,,0.00,LWC V2.00 B2112,2013-07-09 23:44:00,
2013-07-09 15:49:00,58.7,49.3,29.84,SSE,148,0.0,0.0,71,0.00,,,0.00,LWC V2.00 B2112,2013-07-09 23:49:00,
2013-07-09 15:54:00,59.0,48.5,29.84,NW,314,0.0,1.0,68,0.00,,,0.00,LWC V2.00 B2112,2013-07-09 23:54:00,
2013-07-09 15:59:00,59.1,48.9,29.84,NNW,331,1.0,2.0,69,0.00,,,0.00,LWC V2.00 B2112,2013-07-09 23:59:00,
2013-07-09 16:04:00,59.5,49.7,29.84,ESE,107,0.0,1.0,70,0.00,,,0.00,LWC V2.00 B2112,2013-07-10 00:04:00,
2013-07-09 16:09:00,60.3,48.9,29.84,ESE,110,1.0,1.0,66,0.00,,,0.00,LWC V2.00 B2112,2013-07-10 00:09:00,
2013-07-09 16:14:00,60.8,49.4,29.84,NW,306,0.0,2.0,66,0.00,,,0.00,LWC V2.00 B2112,2013-07-10 00:14:00,
2013-07-09 16:19:00,60.9,48.6,29.84,SSW,210,1.0,3.0,64,0.00,,,0.00,LWC V2.00 B2112,2013-07-10 00:19:00,
2013-07-09 16:24:00,60.9,47.8,29.85,SSE,163,0.0,6.0,62,0.00,,,0.00,LWC V2.00 B2112,2013-07-10 00:24:00,
2013-07-09 16:29:00,60.6,47.1,29.85,NW,321,1.0,5.0,61,0.00,,,0.00,LWC V2.00 B2112,2013-07-10 00:29:00,
2013-07-09 16:34:00,60.7,48.4,29.84,SE,137,1.0,1.0,64,0.00,,,0.00,LWC V2.00 B2112,2013-07-10 00:34:00,
2013-07-09 16:39:00,61.0,48.7,29.84,NNW,336,1.0,5.0,64,0.00,,,0.00,LWC V2.00 B2112,2013-07-10 00:39:00,
2013-07-09 16:44:00,61.5,49.2,29.84,ESE,111,0.0,2.0,64,0.00,,,0.00,LWC V2.00 B2112,2013-07-10 00:44:00,
2013-07-09 16:49:00,61.9,48.3,29.84,East,100,2.0,2.0,61,0.00,,,0.00,LWC V2.00 B2112,2013-07-10 00:49:00,
2013-07-09 16:54:00,61.4,47.8,29.84,East,84,1.0,1.0,61,0.00,,,0.00,LWC V2.00 B2112,2013-07-10 00:54:00,
2013-07-09 16:59:00,61.2,48.1,29.84,South,184,0.0,5.0,62,0.00,,,0.00,LWC V2.00 B2112,2013-07-10 00:59:00,
2013-07-09 17:04:00,61.1,47.5,29.84,South,176,0.0,4.0,61,0.00,,,0.00,LWC V2.00 B2112,2013-07-10 01:04:00,
2013-07-09 17:09:00,61.5,47.5,29.84,ESE,117,2.0,3.0,60,0.00,,,0.00,LWC V2.00 B2112,2013-07-10 01:09:00,
2013-07-09 17:14:00,62.1,48.0,29.84,NNW,347,2.0,2.0,60,0.00,,,0.00,LWC V2.00 B2112,2013-07-10 01:14:00,
2013-07-09 17:19:00,62.0,48.4,29.84,NNW,336,1.0,2.0,61,0.00,,,0.00,LWC V2.00 B2112,2013-07-10 01:19:00,
2013-07-09 17:24:00,61.5,48.8,29.84,West,264,1.0,2.0,63,0.00,,,0.00,LWC V2.00 B2112,2013-07-10 01:24:00,
2013-07-09 17:29:00,60.9,49.1,29.84,NNE,23,3.0,8.0,65,0.00,,,0.00,LWC V2.00 B2112,2013-07-10 01:29:00,
2013-07-09 17:34:00,60.9,49.1,29.84,East,94,1.0,5.0,65,0.00,,,0.00,LWC V2.00 B2112,2013-07-10 01:34:00,
2013-07-09 17:39:00,61.0,48.7,29.84,ESE,123,1.0,2.0,64,0.00,,,0.00,LWC V2.00 B2112,2013-07-10 01:39:00,
2013-07-09 17:44:00,60.8,48.5,29.84,ENE,58,1.0,1.0,64,0.00,,,0.00,LWC V2.00 B2112,2013-07-10 01:44:00,
2013-07-09 17:49:00,60.7,48.9,29.84,ESE,120,1.0,1.0,65,0.00,,,0.00,LWC V2.00 B2112,2013-07-10 01:49:00,
2013-07-09 17:54:00,60.8,49.0,29.84,West,263,0.0,1.0,65,0.00,,,0.00,LWC V2.00 B2112,2013-07-10 01:54:00,
2013-07-09 17:59:00,60.7,48.9,29.84,ENE,59,2.0,2.0,65,0.00,,,0.00,LWC V2.00 B2112,2013-07-10 01:59:00,
2013-07-09 18:04:00,60.4,49.0,29.84,NNW,344,0.0,3.0,66,0.00,,,0.00,LWC V2.00 B2112,2013-07-10 02:04:00,
2013-07-09 18:09:00,60.9,48.6,29.85,ENE,69,3.0,5.0,64,0.00,,,0.00,LWC V2.00 B2112,2013-07-10 02:09:00,
2013-07-09 18:14:00,61.3,48.6,29.85,NW,314,1.0,4.0,63,0.00,,,0.00,LWC V2.00 B2112,2013-07-10 02:14:00,
2013-07-09 18:19:00,61.4,48.7,29.85,NW,320,6.0,9.0,63,0.00,,,0.00,LWC V2.00 B2112,2013-07-10 02:19:00,
2013-07-09 18:24:00,61.3,49.0,29.85,NE,51,1.0,2.0,64,0.00,,,0.00,LWC V2.00 B2112,2013-07-10 02:24:00,
2013-07-09 18:29:00,60.5,48.7,29.85,NE,47,0.0,1.0,65,0.00,,,0.00,LWC V2.00 B2112,2013-07-10 02:29:00,
2013-07-09 18:34:00,60.0,49.0,29.85,WNW,297,1.0,5.0,67,0.00,,,0.00,LWC V2.00 B2112,2013-07-10 02:34:00,
2013-07-09 18:39:00,59.6,49.4,29.85,ENE,59,0.0,1.0,69,0.00,,,0.00,LWC V2.00 B2112,2013-07-10 02:39:00,
2013-07-09 18:44:00,59.6,49.4,29.85,East,101,0.0,2.0,69,0.00,,,0.00,LWC V2.00 B2112,2013-07-10 02:44:00,
2013-07-09 18:49:00,59.7,49.5,29.86,SSE,148,0.0,1.0,69,0.00,,,0.00,LWC V2.00 B2112,2013-07-10 02:49:00,
2013-07-09 18:54:00,59.9,49.3,29.85,North,11,1.0,3.0,68,0.00,,,0.00,LWC V2.00 B2112,2013-07-10 02:54:00,
2013-07-09 18:59:00,60.4,49.8,29.85,NE,39,1.0,2.0,68,0.00,,,0.00,LWC V2.00 B2112,2013-07-10 02:59:00,
2013-07-09 19:04:00,60.5,49.5,29.85,ENE,71,1.0,2.0,67,0.00,,,0.00,LWC V2.00 B2112,2013-07-10 03:04:00,
2013-07-09 19:09:00,60.4,49.4,29.86,NNW,332,2.0,8.0,67,0.00,,,0.00,LWC V2.00 B2112,2013-07-10 03:09:00,
2013-07-09 19:14:00,60.7,49.7,29.86,SSE,153,1.0,2.0,67,0.00,,,0.00,LWC V2.00 B2112,2013-07-10 03:14:00,
2013-07-09 19:19:00,60.9,49.9,29.86,SE,142,0.0,4.0,67,0.00,,,0.00,LWC V2.00 B2112,2013-07-10 03:19:00,
2013-07-09 19:24:00,60.7,49.7,29.86,SSE,148,1.0,1.0,67,0.00,,,0.00,LWC V2.00 B2112,2013-07-10 03:24:00,
2013-07-09 19:29:00,60.1,49.1,29.86,NW,319,5.0,5.0,67,0.00,,,0.00,LWC V2.00 B2112,2013-07-10 03:29:00,
2013-07-09 19:34:00,59.0,48.8,29.86,West,278,2.0,2.0,69,0.00,,,0.00,LWC V2.00 B2112,2013-07-10 03:34:00,
2013-07-09 19:39:00,58.6,49.2,29.86,ENE,74,1.0,3.0,71,0.00,,,0.00,LWC V2.00 B2112,2013-07-10 03:39:00,
2013-07-09 19:44:00,58.6,49.6,29.86,WSW,240,2.0,2.0,72,0.00,,,0.00,LWC V2.00 B2112,2013-07-10 03:44:00,
2013-07-09 19:49:00,58.7,49.7,29.86,NNW,333,3.0,3.0,72,0.00,,,0.00,LWC V2.00 B2112,2013-07-10 03:49:00,
2013-07-09 19:54:00,58.8,49.8,29.86,East,93,1.0,2.0,72,0.00,,,0.00,LWC V2.00 B2112,2013-07-10 03:54:00,
2013-07-09 19:59:00,59.0,50.0,29.87,East,94,1.0,1.0,72,0.00,,,0.00,LWC V2.00 B2112,2013-07-10 03:59:00,
2013-07-09 20:04:00,59.2,50.2,29.87,NW,316,0.0,5.0,72,0.00,,,0.00,LWC V2.00 B2112,2013-07-10 04:04:00,
2013-07-09 20:09:00,59.1,49.7,29.87,ENE,63,1.0,3.0,71,0.00,,,0.00,LWC V2.00 B2112,2013-07-10 04:09:00,
2013-07-09 20:14:00,58.9,49.9,29.87,ENE,74,0.0,1.0,72,0.00,,,0.00,LWC V2.00 B2112,2013-07-10 04:14:00,
2013-07-09 20:19:00,58.6,49.6,29.87,NNE,19,1.0,2.0,72,0.00,,,0.00,LWC V2.00 B2112,2013-07-10 04:19:00,
2013-07-09 20:24:00,58.3,49.7,29.87,WSW,246,1.0,2.0,73,0.00,,,0.00,LWC V2.00 B2112,2013-07-10 04:24:00,
2013-07-09 20:29:00,57.9,50.0,29.88,West,275,0.0,4.0,75,0.00,,,0.00,LWC V2.00 B2112,2013-07-10 04:29:00,
2013-07-09 20:34:00,57.4,50.2,29.88,West,265,0.0,1.0,77,0.00,,,0.00,LWC V2.00 B2112,2013-07-10 04:34:00,
2013-07-09 20:39:00,57.1,50.3,29.87,NE,36,1.0,2.0,78,0.00,,,0.00,LWC V2.00 B2112,2013-07-10 04:39:00,
2013-07-09 20:44:00,56.8,49.7,29.88,NW,321,1.0,1.0,77,0.00,,,0.00,LWC V2.00 B2112,2013-07-10 04:44:00,
2013-07-09 20:49:00,56.7,49.6,29.88,WSW,246,0.0,4.0,77,0.00,,,0.00,LWC V2.00 B2112,2013-07-10 04:49:00,
2013-07-09 20:54:00,56.8,49.7,29.88,ESE,114,1.0,1.0,77,0.00,,,0.00,LWC V2.00 B2112,2013-07-10 04:54:00,
2013-07-09 20:59:00,57.0,49.9,29.88,NNW,331,0.0,1.0,77,0.00,,,0.00,LWC V2.00 B2112,2013-07-10 04:59:00,
2013-07-09 21:04:00,57.1,50.0,29.88,SSE,156,0.0,2.0,77,0.00,,,0.00,LWC V2.00 B2112,2013-07-10 05:04:00,
2013-07-09 21:09:00,57.1,49.6,29.88,NNW,329,1.0,3.0,76,0.00,,,0.00,LWC V2.00 B2112,2013-07-10 05:09:00,
2013-07-09 21:14:00,57.0,49.9,29.88,ESE,111,1.0,3.0,77,0.00,,,0.00,LWC V2.00 B2112,2013-07-10 05:14:00,
2013-07-09 21:19:00,56.9,49.8,29.88,SE,129,0.0,1.0,77,0.00,,,0.00,LWC V2.00 B2112,2013-07-10 05:19:00,
2013-07-09 21:24:00,56.8,49.7,29.88,NNE,30,1.0,2.0,77,0.00,,,0.00,LWC V2.00 B2112,2013-07-10 05:24:00,
2013-07-09 21:29:00,56.7,49.9,29.88,NW,325,1.0,4.0,78,0.00,,,0.00,LWC V2.00 B2112,2013-07-10 05:29:00,
2013-07-09 21:34:00,56.5,49.4,29.89,West,280,3.0,3.0,77,0.00,,,0.00,LWC V2.00 B2112,2013-07-10 05:34:00,
2013-07-09 21:39:00,56.4,49.6,29.89,South,176,0.0,2.0,78,0.00,,,0.00,LWC V2.00 B2112,2013-07-10 05:39:00,
2013-07-09 21:44:00,56.3,49.5,29.89,ESE,111,0.0,1.0,78,0.00,,,0.00,LWC V2.00 B2112,2013-07-10 05:44:00,
2013-07-09 21:49:00,56.2,49.8,29.89,East,88,0.0,1.0,79,0.00,,,0.00,LWC V2.00 B2112,2013-07-10 05:49:00,
2013-07-09 21:54:00,56.1,49.7,29.89,East,88,0.0,1.0,79,0.00,,,0.00,LWC V2.00 B2112,2013-07-10 05:54:00,
2013-07-09 21:59:00,56.0,49.6,29.89,ESE,112,0.0,1.0,79,0.00,,,0.00,LWC V2.00 B2112,2013-07-10 05:59:00,
2013-07-09 22:04:00,55.9,49.5,29.89,East,86,1.0,2.0,79,0.00,,,0.00,LWC V2.00 B2112,2013-07-10 06:04:00,
2013-07-09 22:09:00,55.7,49.6,29.89,ESE,108,1.0,2.0,80,0.00,,,0.00,LWC V2.00 B2112,2013-07-10 06:09:00,
2013-07-09 22:14:00,55.7,49.3,29.89,ESE,119,0.0,1.0,79,0.00,,,0.00,LWC V2.00 B2112,2013-07-10 06:14:00,
2013-07-09 22:19:00,55.5,49.4,29.89,ENE,66,0.0,2.0,80,0.00,,,0.00,LWC V2.00 B2112,2013-07-10 06:19:00,
2013-07-09 22:24:00,55.5,49.4,29.89,ESE,113,1.0,2.0,80,0.00,,,0.00,LWC V2.00 B2112,2013-07-10 06:24:00,
2013-07-09 22:29:00,55.4,49.3,29.89,SE,131,0.0,2.0,80,0.00,,,0.00,LWC V2.00 B2112,2013-07-10 06:29:00,
2013-07-09 22:34:00,55.4,49.3,29.90,ENE,69,1.0,2.0,80,0.00,,,0.00,LWC V2.00 B2112,2013-07-10 06:34:00,
2013-07-09 22:39:00,55.3,49.2,29.90,SSW,206,1.0,2.0,80,0.00,,,0.00,LWC V2.00 B2112,2013-07-10 06:39:00,
2013-07-09 22:44:00,55.2,49.1,29.90,SW,225,0.0,0.0,80,0.00,,,0.00,LWC V2.00 B2112,2013-07-10 06:44:00,
2013-07-09 22:49:00,55.2,49.5,29.90,SE,131,0.0,0.0,81,0.00,,,0.00,LWC V2.00 B2112,2013-07-10 06:49:00,
2013-07-09 22:54:00,55.1,49.0,29.90,WNW,286,1.0,3.0,80,0.00,,,0.00,LWC V2.00 B2112,2013-07-10 06:54:00,
2013-07-09 22:59:00,55.1,49.4,29.90,NW,325,1.0,3.0,81,0.00,,,0.00,LWC V2.00 B2112,2013-07-10 06:59:00,
2013-07-09 23:04:00,55.1,49.4,29.90,NW,323,0.0,3.0,81,0.00,,,0.00,LWC V2.00 B2112,2013-07-10 07:04:00,
2013-07-09 23:09:00,55.0,49.3,29.90,East,95,1.0,1.0,81,0.00,,,0.00,LWC V2.00 B2112,2013-07-10 07:09:00,
2013-07-09 23:14:00,54.8,49.1,29.90,ESE,107,0.0,0.0,81,0.00,,,0.00,LWC V2.00 B2112,2013-07-10 07:14:00,
2013-07-09 23:19:00,54.7,49.0,29.90,ENE,71,1.0,1.0,81,0.00,,,0.00,LWC V2.00 B2112,2013-07-10 07:19:00,
2013-07-09 23:24:00,54.5,48.8,29.90,NNE,26,2.0,4.0,81,0.00,,,0.00,LWC V2.00 B2112,2013-07-10 07:24:00,
2013-07-09 23:29:00,54.4,49.0,29.90,East,96,1.0,1.0,82,0.00,,,0.00,LWC V2.00 B2112,2013-07-10 07:29:00,
2013-07-09 23:34:00,54.3,48.9,29.90,ESE,122,0.0,1.0,82,0.00,,,0.00,LWC V2.00 B2112,2013-07-10 07:34:00,
2013-07-09 23:39:00,54.2,49.1,29.90,NW,319,2.0,2.0,83,0.00,,,0.00,LWC V2.00 B2112,2013-07-10 07:39:00,
2013-07-09 23:44:00,54.0,49.0,29.90,NNE,12,0.0,1.0,83,0.00,,,0.00,LWC V2.00 B2112,2013-07-10 07:44:00,
2013-07-09 23:49:00,53.9,49.2,29.90,NNW,334,1.0,1.0,84,0.00,,,0.00,LWC V2.00 B2112,2013-07-10 07:49:00,
2013-07-09 23:54:00,53.8,49.1,29.90,SE,142,0.0,1.0,84,0.00,,,0.00,LWC V2.00 B2112,2013-07-10 07:54:00,
2013-07-09 23:59:00,53.6,49.2,29.90,SW,227,1.0,1.0,85,0.00,,,0.00,LWC V2.00 B2112,2013-07-10 07:59:00,